Xinyi, China
Current Conditions -  °F | °C
As of 11:30 AM on Sunday 23 Nov 2014 (Local Time) from ZGGG Reporting Station
Haze Haze  
Wind Chill: 79°   Ceiling: Unl
Heat Index: 81°   Visibility: 3mi
Dew Point: 64°   Wind: 7mph
Humidity: 61%   Direction: 100°E
Pressure: 30.03"   Gusts: NA
Location:  22.35°N, 110.93°E
Report Text: ZGGG 230330Z 10003MPS 060V140 5000 HZ NSC 26/18 Q1017 NOSIG
Loading
Personal Weather Stations






























Interactive Weather Map New forecast layout! Learn more

10-Day Weather Forecast

Advertisements
Track Severe Weather on mobile